createdAt,value
2023-04-16T00:00:15.105Z,91.81
2023-04-16T00:01:17.236Z,91.55
2023-04-16T00:02:19.810Z,91.88
2023-04-16T00:03:22.180Z,91.69
2023-04-16T00:04:24.607Z,91.81
2023-04-16T00:05:27.641Z,91.97
2023-04-16T00:06:29.714Z,91.96
2023-04-16T00:07:31.807Z,91.88
2023-04-16T00:08:35.710Z,91.89
2023-04-16T00:09:37.868Z,92.15
2023-04-16T00:10:40.016Z,92.25
2023-04-16T00:11:42.133Z,92.26
2023-04-16T00:12:44.389Z,91.80
2023-04-16T00:13:46.497Z,92.17
2023-04-16T00:14:49.213Z,92.42
2023-04-16T00:15:51.384Z,92.48
2023-04-16T00:16:53.520Z,92.52
2023-04-16T00:17:55.690Z,92.47
2023-04-16T00:18:57.827Z,92.72
2023-04-16T00:19:59.884Z,92.87
2023-04-16T00:21:01.973Z,92.97
2023-04-16T00:22:04.081Z,92.87
2023-04-16T00:23:06.222Z,93.10
2023-04-16T00:24:08.484Z,93.11
2023-04-16T00:25:10.626Z,92.91
2023-04-16T00:26:12.725Z,93.02
2023-04-16T00:27:14.870Z,93.27
2023-04-16T00:28:17.042Z,93.13
2023-04-16T00:29:19.300Z,93.17
2023-04-16T00:30:21.449Z,93.01
2023-04-16T00:31:30.954Z,93.07
2023-04-16T00:32:33.146Z,92.87
2023-04-16T00:33:35.465Z,92.92
2023-04-16T00:34:37.548Z,92.97
2023-04-16T00:35:39.960Z,92.96
2023-04-16T00:36:42.048Z,92.85
2023-04-16T00:37:44.235Z,92.83
2023-04-16T00:38:46.354Z,92.89
2023-04-16T00:39:48.453Z,93.11
2023-04-16T00:40:50.629Z,93.04
2023-04-16T00:41:52.727Z,93.05
2023-04-16T00:42:54.845Z,92.86
2023-04-16T00:43:56.996Z,92.86
2023-04-16T00:44:59.115Z,92.98
2023-04-16T00:46:01.493Z,93.03
2023-04-16T00:47:04.226Z,92.94
2023-04-16T00:48:06.334Z,92.91
2023-04-16T00:49:08.669Z,92.79
2023-04-16T00:50:11.836Z,92.88
2023-04-16T00:51:14.021Z,93.10
2023-04-16T00:52:16.140Z,92.93
2023-04-16T00:53:18.246Z,92.92
2023-04-16T00:54:20.573Z,92.96
2023-04-16T00:55:22.884Z,92.98
2023-04-16T00:56:25.602Z,93.08
2023-04-16T00:57:28.013Z,93.08
2023-04-16T00:58:30.478Z,93.20
2023-04-16T00:59:32.637Z,93.24
2023-04-16T01:00:34.754Z,93.16
2023-04-16T01:01:36.919Z,93.09
2023-04-16T01:02:39.499Z,92.87
2023-04-16T01:03:47.182Z,93.13
2023-04-16T01:04:49.375Z,93.29
2023-04-16T01:05:51.554Z,93.14
2023-04-16T01:06:53.661Z,93.06
2023-04-16T01:07:59.684Z,93.10
2023-04-16T01:09:01.873Z,92.90
2023-04-16T01:10:04.292Z,92.72
2023-04-16T01:11:06.593Z,92.74
2023-04-16T01:12:08.744Z,92.75
2023-04-16T01:13:11.166Z,92.92
2023-04-16T01:14:13.296Z,92.93
2023-04-16T01:15:15.639Z,92.89
2023-04-16T01:16:17.808Z,93.05
2023-04-16T01:17:19.977Z,93.20
2023-04-16T01:18:22.895Z,93.06
2023-04-16T01:19:25.032Z,92.94
2023-04-16T01:20:27.129Z,92.96
2023-04-16T01:21:29.301Z,92.91
2023-04-16T01:22:31.605Z,92.98
2023-04-16T01:23:33.750Z,92.68
2023-04-16T01:24:36.475Z,92.67
2023-04-16T01:25:39.297Z,92.79
2023-04-16T01:26:41.377Z,92.52
2023-04-16T01:27:43.626Z,92.16
2023-04-16T01:28:45.756Z,92.30
2023-04-16T01:29:47.848Z,92.49
2023-04-16T01:30:49.975Z,92.54
2023-04-16T01:31:52.102Z,92.67
2023-04-16T01:32:54.303Z,92.84
2023-04-16T01:33:56.436Z,92.76
2023-04-16T01:34:58.528Z,92.72
2023-04-16T01:36:00.703Z,92.80
2023-04-16T01:37:03.856Z,92.91
2023-04-16T01:38:06.831Z,92.81
2023-04-16T01:39:13.771Z,92.67
2023-04-16T01:40:16.342Z,92.77
2023-04-16T01:41:18.522Z,92.80
2023-04-16T01:42:20.786Z,92.95
2023-04-16T01:43:22.978Z,93.03
2023-04-16T01:44:25.614Z,93.09
2023-04-16T01:45:27.693Z,93.11
2023-04-16T01:46:32.166Z,92.98
2023-04-16T01:47:34.412Z,93.23
2023-04-16T01:48:36.529Z,92.98
2023-04-16T01:49:38.675Z,93.32
2023-04-16T01:50:41.512Z,93.30
2023-04-16T01:51:43.608Z,93.27
2023-04-16T01:52:45.882Z,93.13
2023-04-16T01:53:47.988Z,93.28
2023-04-16T01:54:50.200Z,93.25
2023-04-16T01:55:52.309Z,93.36
2023-04-16T01:56:54.412Z,93.45
2023-04-16T01:57:56.478Z,93.43
2023-04-16T01:58:58.598Z,93.37
2023-04-16T02:00:00.786Z,93.41
2023-04-16T02:01:03.259Z,93.51
2023-04-16T02:02:12.355Z,93.24
2023-04-16T02:03:17.715Z,93.42
2023-04-16T02:04:19.876Z,93.47
2023-04-16T02:05:22.091Z,93.63
2023-04-16T02:06:24.264Z,93.71
2023-04-16T02:07:27.435Z,93.75
2023-04-16T02:08:29.600Z,93.85
2023-04-16T02:09:31.989Z,93.55
2023-04-16T02:10:34.099Z,93.30
2023-04-16T02:11:36.319Z,93.29
2023-04-16T02:12:38.518Z,93.29
2023-04-16T02:13:40.757Z,93.43
2023-04-16T02:14:43.258Z,93.58
2023-04-16T02:15:49.739Z,93.64
2023-04-16T02:16:52.381Z,93.75
2023-04-16T02:17:57.004Z,93.70
2023-04-16T02:18:59.220Z,93.55
2023-04-16T02:20:03.384Z,93.61
2023-04-16T02:21:06.563Z,93.81
2023-04-16T02:22:08.708Z,93.75
2023-04-16T02:23:11.961Z,93.64
2023-04-16T02:24:14.107Z,93.68
2023-04-16T02:25:16.260Z,93.76
2023-04-16T02:26:18.450Z,93.76
2023-04-16T02:27:20.696Z,93.79
2023-04-16T02:28:22.856Z,93.66
2023-04-16T02:29:24.967Z,93.36
2023-04-16T02:30:27.210Z,93.57
2023-04-16T02:31:29.730Z,93.27
2023-04-16T02:32:31.827Z,93.36
2023-04-16T02:33:35.918Z,93.30
2023-04-16T02:34:40.251Z,93.41
2023-04-16T02:35:42.481Z,93.33
2023-04-16T02:36:44.650Z,93.72
2023-04-16T02:37:46.774Z,93.63
2023-04-16T02:38:48.938Z,93.53
2023-04-16T02:39:51.515Z,93.65
2023-04-16T02:40:53.763Z,93.43
2023-04-16T02:41:56.243Z,93.60
2023-04-16T02:42:58.362Z,93.85
2023-04-16T02:44:01.000Z,93.58
2023-04-16T02:45:03.286Z,93.63
2023-04-16T02:46:05.513Z,93.91
2023-04-16T02:47:07.783Z,93.57
2023-04-16T02:48:10.032Z,93.76
2023-04-16T02:49:12.256Z,93.81
2023-04-16T02:50:14.717Z,93.79
2023-04-16T02:51:16.861Z,94.02
2023-04-16T02:52:18.980Z,94.26
2023-04-16T02:53:21.442Z,94.27
2023-04-16T02:54:23.596Z,94.29
2023-04-16T02:55:25.832Z,94.19
2023-04-16T02:56:27.940Z,94.09
2023-04-16T02:57:30.207Z,93.83
2023-04-16T02:58:32.425Z,93.92
2023-04-16T02:59:34.506Z,93.83
2023-04-16T03:00:38.209Z,93.78
2023-04-16T03:01:40.370Z,93.93
2023-04-16T03:02:42.692Z,94.01
2023-04-16T03:03:44.950Z,94.09
2023-04-16T03:04:47.149Z,93.80
2023-04-16T03:05:49.274Z,94.05
2023-04-16T03:06:51.377Z,94.15
2023-04-16T03:07:56.771Z,93.92
2023-04-16T03:08:59.044Z,93.57
2023-04-16T03:10:01.168Z,93.72
2023-04-16T03:11:03.298Z,93.61
2023-04-16T03:12:05.648Z,93.53
2023-04-16T03:13:07.901Z,93.52
2023-04-16T03:14:09.976Z,93.61
2023-04-16T03:15:12.153Z,93.64
2023-04-16T03:16:14.376Z,93.51
2023-04-16T03:17:16.681Z,93.63
2023-04-16T03:18:18.921Z,93.89
2023-04-16T03:19:21.061Z,94.07
2023-04-16T03:20:23.425Z,93.89
2023-04-16T03:21:27.671Z,94.04
2023-04-16T03:22:30.209Z,94.05
2023-04-16T03:23:32.352Z,94.03
2023-04-16T03:24:34.451Z,94.21
2023-04-16T03:25:36.694Z,94.15
2023-04-16T03:26:38.873Z,94.00
2023-04-16T03:27:41.013Z,94.24
2023-04-16T03:28:43.165Z,94.24
2023-04-16T03:29:45.357Z,94.28
2023-04-16T03:30:53.774Z,94.02
2023-04-16T03:31:56.096Z,94.00
2023-04-16T03:32:58.256Z,93.82
2023-04-16T03:34:00.595Z,93.70
2023-04-16T03:35:06.971Z,93.56
2023-04-16T03:36:10.157Z,93.52
2023-04-16T03:37:12.359Z,93.47
2023-04-16T03:38:14.518Z,93.57
2023-04-16T03:39:16.781Z,93.50
2023-04-16T03:40:18.907Z,93.68
2023-04-16T03:41:20.999Z,93.80
2023-04-16T03:42:23.082Z,93.60
2023-04-16T03:43:25.233Z,93.49
2023-04-16T03:44:27.298Z,93.32
2023-04-16T03:45:29.392Z,93.21
2023-04-16T03:46:31.572Z,93.35
2023-04-16T03:47:33.689Z,93.32
2023-04-16T03:48:36.614Z,93.38
2023-04-16T03:49:38.808Z,93.21
2023-04-16T03:50:41.280Z,93.25
2023-04-16T03:51:43.374Z,93.34
2023-04-16T03:52:46.959Z,93.22
2023-04-16T03:53:49.070Z,93.33
2023-04-16T03:54:51.294Z,93.81
2023-04-16T03:55:53.359Z,94.18
2023-04-16T03:56:55.454Z,94.50
2023-04-16T03:57:57.706Z,94.49
2023-04-16T03:58:59.807Z,94.62
2023-04-16T04:00:01.912Z,94.44
2023-04-16T04:01:03.999Z,94.68
2023-04-16T04:02:06.227Z,94.43
2023-04-16T04:03:08.515Z,94.14
2023-04-16T04:04:11.092Z,93.92
2023-04-16T04:05:13.397Z,93.76
2023-04-16T04:06:15.575Z,93.69
2023-04-16T04:07:17.655Z,93.79
2023-04-16T04:08:19.888Z,93.72
2023-04-16T04:09:22.001Z,93.45
2023-04-16T04:10:24.107Z,93.53
2023-04-16T04:11:26.305Z,93.42
2023-04-16T04:12:28.454Z,93.33
2023-04-16T04:13:30.641Z,93.25
2023-04-16T04:14:32.742Z,93.33
2023-04-16T04:15:34.925Z,93.26
2023-04-16T04:16:37.040Z,93.21
2023-04-16T04:17:39.192Z,93.44
2023-04-16T04:18:42.716Z,93.34
2023-04-16T04:20:00.016Z,93.39
2023-04-16T04:21:09.538Z,93.48
2023-04-16T04:22:11.641Z,93.03
2023-04-16T04:23:13.711Z,93.00
2023-04-16T04:24:15.817Z,92.79
2023-04-16T04:25:17.982Z,92.59
2023-04-16T04:26:20.212Z,92.63
2023-04-16T04:27:22.332Z,92.98
2023-04-16T04:28:24.432Z,92.59
2023-04-16T04:29:26.516Z,92.32
2023-04-16T04:30:28.661Z,92.18
2023-04-16T04:31:31.038Z,92.24
2023-04-16T04:32:33.244Z,92.04
2023-04-16T04:33:35.473Z,91.82
2023-04-16T04:34:37.557Z,91.88
2023-04-16T04:35:39.714Z,91.95
2023-04-16T04:36:41.972Z,91.87
2023-04-16T04:37:44.056Z,91.98
2023-04-16T04:38:46.221Z,91.75
2023-04-16T04:39:48.430Z,92.02
2023-04-16T04:40:52.065Z,91.60
2023-04-16T04:41:54.155Z,91.39
2023-04-16T04:42:56.256Z,90.87
2023-04-16T04:43:58.325Z,90.92
2023-04-16T04:45:00.649Z,91.09
2023-04-16T04:46:02.871Z,91.38
2023-04-16T04:47:05.022Z,91.16
2023-04-16T04:48:07.276Z,91.16
2023-04-16T04:49:09.649Z,90.82
2023-04-16T04:50:11.915Z,90.83
2023-04-16T04:51:14.075Z,90.83
2023-04-16T04:52:16.205Z,90.77
2023-04-16T04:53:18.398Z,90.77
2023-04-16T04:54:20.525Z,90.78
2023-04-16T04:55:22.756Z,91.12
2023-04-16T04:56:24.906Z,91.01
2023-04-16T04:57:27.044Z,91.11
2023-04-16T04:58:29.147Z,91.20
2023-04-16T04:59:31.265Z,91.47
2023-04-16T05:00:34.228Z,91.73
2023-04-16T05:01:36.455Z,91.61
2023-04-16T05:02:38.761Z,91.83
2023-04-16T05:03:41.290Z,91.74
2023-04-16T05:04:43.561Z,91.11
2023-04-16T05:05:45.899Z,90.91
2023-04-16T05:06:47.978Z,90.69
2023-04-16T05:07:50.101Z,90.48
2023-04-16T05:08:52.218Z,90.76
2023-04-16T05:09:54.355Z,90.60
2023-04-16T05:10:56.480Z,90.96
2023-04-16T05:11:58.907Z,90.73
2023-04-16T05:13:01.265Z,90.28
2023-04-16T05:14:03.360Z,90.42
2023-04-16T05:15:06.044Z,90.24
2023-04-16T05:16:08.181Z,90.10
2023-04-16T05:17:11.043Z,90.84
2023-04-16T05:18:13.203Z,90.14
2023-04-16T05:19:17.086Z,90.11
2023-04-16T05:20:19.251Z,90.06
2023-04-16T05:21:21.567Z,89.93
2023-04-16T05:22:23.667Z,89.48
2023-04-16T05:23:25.742Z,89.32
2023-04-16T05:24:27.822Z,89.60
2023-04-16T05:25:29.922Z,89.77
2023-04-16T05:26:32.039Z,89.73
2023-04-16T05:27:34.133Z,89.70
2023-04-16T05:28:36.227Z,89.85
2023-04-16T05:29:38.322Z,89.49
2023-04-16T05:30:40.495Z,89.87
2023-04-16T05:31:42.735Z,89.72
2023-04-16T05:32:44.883Z,89.52
2023-04-16T05:33:47.014Z,89.34
2023-04-16T05:34:49.131Z,89.43
2023-04-16T05:35:51.376Z,89.67
2023-04-16T05:36:53.502Z,89.66
2023-04-16T05:37:55.691Z,89.66
2023-04-16T05:38:57.839Z,89.59
2023-04-16T05:39:59.963Z,89.68
2023-04-16T05:41:02.045Z,88.82
2023-04-16T05:42:04.243Z,88.98
2023-04-16T05:43:06.357Z,88.99
2023-04-16T05:44:08.518Z,89.17
2023-04-16T05:45:10.969Z,88.73
2023-04-16T05:46:13.201Z,88.90
2023-04-16T05:47:15.547Z,89.10
2023-04-16T05:48:17.645Z,89.51
2023-04-16T05:49:20.247Z,88.54
2023-04-16T05:50:22.380Z,88.93
2023-04-16T05:51:26.143Z,88.76
2023-04-16T05:52:28.261Z,88.93
2023-04-16T05:53:30.372Z,88.89
2023-04-16T05:54:32.454Z,88.58
2023-04-16T05:55:36.836Z,88.51
2023-04-16T05:56:38.959Z,88.22
2023-04-16T05:57:41.099Z,88.40
2023-04-16T05:58:43.259Z,87.49
2023-04-16T05:59:45.382Z,88.13
2023-04-16T06:00:47.598Z,87.56
2023-04-16T06:01:49.741Z,87.81
2023-04-16T06:02:51.960Z,87.85
2023-04-16T06:03:54.305Z,87.57
2023-04-16T06:04:56.497Z,87.31
2023-04-16T06:05:58.667Z,86.74
2023-04-16T06:07:00.940Z,86.45
2023-04-16T06:08:03.057Z,86.33
2023-04-16T06:09:05.228Z,86.76
2023-04-16T06:10:07.715Z,86.62
2023-04-16T06:11:09.879Z,87.17
2023-04-16T06:12:11.988Z,86.38
2023-04-16T06:13:14.159Z,86.53
2023-04-16T06:14:16.286Z,87.07
2023-04-16T06:15:18.447Z,87.00
2023-04-16T06:16:20.587Z,87.17
2023-04-16T06:17:22.962Z,87.10
2023-04-16T06:18:25.253Z,86.85
2023-04-16T06:19:27.394Z,86.67
2023-04-16T06:20:29.673Z,86.77
2023-04-16T06:21:32.247Z,86.30
2023-04-16T06:22:34.374Z,85.46
2023-04-16T06:23:36.515Z,84.90
2023-04-16T06:24:38.626Z,84.68
2023-04-16T06:25:40.773Z,84.20
2023-04-16T06:26:42.889Z,83.59
2023-04-16T06:27:45.000Z,83.96
2023-04-16T06:28:47.088Z,83.49
2023-04-16T06:29:49.361Z,83.32
2023-04-16T06:30:51.487Z,83.15
2023-04-16T06:31:53.727Z,83.44
2023-04-16T06:32:55.984Z,83.51
2023-04-16T06:33:58.259Z,83.51
2023-04-16T06:35:00.456Z,82.62
2023-04-16T06:36:02.586Z,82.42
2023-04-16T06:37:04.810Z,82.22
2023-04-16T06:38:06.930Z,81.81
2023-04-16T06:39:09.440Z,81.17
2023-04-16T06:40:12.205Z,80.98
2023-04-16T06:41:14.553Z,81.10
2023-04-16T06:42:16.725Z,81.08
2023-04-16T06:43:18.906Z,80.97
2023-04-16T06:44:21.081Z,81.00
2023-04-16T06:45:23.250Z,80.29
2023-04-16T06:46:25.456Z,81.16
2023-04-16T06:47:27.654Z,81.10
2023-04-16T06:48:30.107Z,81.28
2023-04-16T06:49:32.236Z,81.30
2023-04-16T06:50:34.496Z,81.25
2023-04-16T06:51:36.666Z,80.84
2023-04-16T06:52:38.758Z,80.70
2023-04-16T06:53:41.096Z,80.12
2023-04-16T06:54:43.334Z,80.04
2023-04-16T06:55:45.603Z,79.52
2023-04-16T06:56:47.702Z,79.54
2023-04-16T06:57:49.820Z,79.79
2023-04-16T06:58:52.009Z,79.49
2023-04-16T06:59:54.140Z,79.06
2023-04-16T07:00:56.323Z,79.00
2023-04-16T07:01:58.635Z,79.04
2023-04-16T07:03:01.966Z,78.65
2023-04-16T07:04:04.589Z,78.67
2023-04-16T07:05:07.200Z,78.02
2023-04-16T07:06:09.331Z,77.56
2023-04-16T07:07:11.426Z,77.37
2023-04-16T07:08:13.576Z,77.13
2023-04-16T07:09:15.712Z,77.36
2023-04-16T07:10:18.328Z,77.66
2023-04-16T07:11:20.984Z,77.67
2023-04-16T07:12:23.225Z,77.48
2023-04-16T07:13:26.014Z,77.28
2023-04-16T07:14:28.158Z,76.80
2023-04-16T07:15:30.349Z,76.21
2023-04-16T07:16:32.489Z,76.51
2023-04-16T07:17:34.762Z,75.98
2023-04-16T07:18:36.973Z,75.92
2023-04-16T07:19:39.120Z,74.85
2023-04-16T07:20:41.265Z,74.05
2023-04-16T07:21:43.857Z,73.73
2023-04-16T07:22:46.175Z,74.11
2023-04-16T07:23:48.295Z,73.29
2023-04-16T07:24:50.399Z,72.94
2023-04-16T07:25:52.542Z,72.50
2023-04-16T07:26:54.623Z,72.53
2023-04-16T07:27:56.798Z,72.14
2023-04-16T07:28:58.903Z,72.67
2023-04-16T07:30:00.993Z,72.42
2023-04-16T07:31:03.137Z,71.84
2023-04-16T07:32:05.399Z,71.17
2023-04-16T07:33:07.678Z,70.98
2023-04-16T07:34:09.824Z,71.46
2023-04-16T07:35:11.964Z,71.92
2023-04-16T07:36:14.111Z,72.12
2023-04-16T07:37:16.294Z,72.02
2023-04-16T07:38:18.390Z,72.31
2023-04-16T07:39:20.481Z,71.91
2023-04-16T07:40:23.676Z,71.68
2023-04-16T07:41:25.969Z,71.49
2023-04-16T07:42:28.614Z,71.50
2023-04-16T07:43:30.740Z,70.61
2023-04-16T07:44:32.871Z,70.97
2023-04-16T07:45:35.037Z,70.64
2023-04-16T07:46:46.300Z,70.51
2023-04-16T07:47:48.933Z,70.60
2023-04-16T07:48:51.082Z,70.22
2023-04-16T07:49:53.828Z,70.11
2023-04-16T07:50:55.959Z,69.99
2023-04-16T07:51:58.043Z,70.02
2023-04-16T07:53:00.276Z,70.18
2023-04-16T07:54:02.773Z,70.32
2023-04-16T07:55:05.590Z,69.62
2023-04-16T07:56:07.933Z,68.86
2023-04-16T07:57:10.037Z,68.27
2023-04-16T07:58:12.132Z,68.18
2023-04-16T07:59:23.105Z,68.12
2023-04-16T08:00:26.457Z,68.47
2023-04-16T08:01:28.612Z,68.83
2023-04-16T08:02:30.909Z,68.50
2023-04-16T08:03:33.377Z,68.70
2023-04-16T08:04:35.860Z,68.30
2023-04-16T08:05:38.196Z,68.21
2023-04-16T08:06:40.485Z,68.16
2023-04-16T08:07:42.653Z,68.35
2023-04-16T08:08:44.781Z,67.56
2023-04-16T08:09:56.660Z,68.19
2023-04-16T08:10:59.141Z,67.75
2023-04-16T08:12:01.983Z,66.52
2023-04-16T08:13:04.152Z,65.59
2023-04-16T08:14:06.448Z,65.82
2023-04-16T08:15:09.097Z,65.40
2023-04-16T08:16:11.288Z,65.15
2023-04-16T08:17:14.470Z,64.62
2023-04-16T08:18:16.779Z,64.64
2023-04-16T08:19:19.026Z,64.65
2023-04-16T08:20:21.129Z,63.96
2023-04-16T08:21:23.262Z,64.05
2023-04-16T08:22:26.403Z,65.24
2023-04-16T08:23:28.611Z,64.06
2023-04-16T08:24:30.733Z,63.96
2023-04-16T08:25:32.860Z,63.89
2023-04-16T08:26:35.006Z,63.42
2023-04-16T08:27:37.209Z,63.31
2023-04-16T08:28:39.383Z,62.91
2023-04-16T08:29:41.509Z,63.41
2023-04-16T08:30:45.611Z,62.97
2023-04-16T08:31:47.848Z,63.07
2023-04-16T08:32:50.566Z,62.94
2023-04-16T08:33:52.766Z,62.56
2023-04-16T08:34:54.926Z,61.88
2023-04-16T08:35:57.151Z,61.79
2023-04-16T08:36:59.304Z,62.10
2023-04-16T08:38:02.922Z,63.03
2023-04-16T08:39:05.056Z,63.17
2023-04-16T08:40:07.976Z,62.90
2023-04-16T08:41:12.889Z,62.03
2023-04-16T08:42:24.106Z,61.92
2023-04-16T08:43:26.423Z,61.07
2023-04-16T08:44:32.281Z,61.14
2023-04-16T08:45:35.090Z,60.88
2023-04-16T08:46:38.273Z,60.37
2023-04-16T08:47:41.703Z,60.78
2023-04-16T08:48:44.402Z,61.20
2023-04-16T08:49:46.594Z,60.62
2023-04-16T08:50:52.512Z,60.34
2023-04-16T08:51:57.649Z,60.13
2023-04-16T08:53:00.900Z,60.45
2023-04-16T08:54:05.720Z,59.77
2023-04-16T08:55:38.521Z,59.61
2023-04-16T08:56:43.240Z,59.43
2023-04-16T08:57:51.372Z,60.47
2023-04-16T08:58:54.872Z,60.87
2023-04-16T08:59:58.062Z,60.64
2023-04-16T09:01:01.416Z,60.65
2023-04-16T09:02:04.243Z,60.20
2023-04-16T09:03:07.032Z,60.00
2023-04-16T09:04:09.485Z,60.72
2023-04-16T09:05:17.075Z,60.14
2023-04-16T09:06:19.699Z,59.74
2023-04-16T09:07:22.092Z,59.40
2023-04-16T09:08:24.439Z,59.22
2023-04-16T09:09:27.664Z,58.83
2023-04-16T09:10:29.856Z,58.54
2023-04-16T09:11:32.236Z,58.30
2023-04-16T09:12:35.460Z,57.20
2023-04-16T09:13:38.180Z,57.03
2023-04-16T09:14:41.957Z,57.80
2023-04-16T09:15:44.221Z,57.73
2023-04-16T09:16:47.688Z,58.42
2023-04-16T09:17:49.824Z,58.99
2023-04-16T09:18:52.264Z,58.89
2023-04-16T09:19:54.989Z,59.35
2023-04-16T09:20:57.584Z,58.96
2023-04-16T09:21:59.763Z,58.92
2023-04-16T09:23:01.912Z,58.63
2023-04-16T09:24:04.255Z,59.84
2023-04-16T09:25:07.075Z,60.05
2023-04-16T09:26:09.185Z,59.87
2023-04-16T09:27:12.554Z,59.64
2023-04-16T09:28:47.165Z,59.81
2023-04-16T09:29:49.547Z,60.41
2023-04-16T09:30:51.622Z,60.35
2023-04-16T09:32:04.877Z,60.41
2023-04-16T09:33:23.354Z,60.91
2023-04-16T09:34:25.714Z,61.44
2023-04-16T09:35:27.837Z,62.33
2023-04-16T09:36:31.357Z,62.11
2023-04-16T09:37:33.517Z,62.11
2023-04-16T09:38:53.405Z,62.29
2023-04-16T09:40:01.630Z,63.09
2023-04-16T09:41:10.603Z,62.35
2023-04-16T09:42:14.411Z,62.34
2023-04-16T09:43:18.494Z,62.17
2023-04-16T09:44:20.876Z,62.23
2023-04-16T09:45:23.016Z,61.34
2023-04-16T09:46:36.227Z,61.10
2023-04-16T09:47:41.314Z,61.64
2023-04-16T09:48:46.042Z,61.01
2023-04-16T09:49:48.156Z,61.04
2023-04-16T09:50:51.698Z,60.66
2023-04-16T09:51:56.154Z,60.67
2023-04-16T09:53:02.502Z,60.95
2023-04-16T09:54:05.597Z,60.27
2023-04-16T09:55:07.946Z,59.67
2023-04-16T09:56:11.588Z,59.61
2023-04-16T09:57:14.785Z,60.15
2023-04-16T09:58:19.450Z,60.10
2023-04-16T09:59:21.800Z,59.73
2023-04-16T10:00:23.847Z,60.07
2023-04-16T10:01:26.212Z,59.28
2023-04-16T10:02:29.102Z,58.93
2023-04-16T10:03:32.805Z,57.21
2023-04-16T10:04:52.107Z,56.87
2023-04-16T10:05:54.306Z,56.24
2023-04-16T10:07:04.725Z,56.48
2023-04-16T10:08:17.282Z,54.26
2023-04-16T10:09:19.423Z,53.96
2023-04-16T10:10:22.384Z,52.93
2023-04-16T10:11:24.740Z,52.14
2023-04-16T10:12:29.908Z,51.85
2023-04-16T10:13:32.433Z,51.59
2023-04-16T10:14:34.838Z,51.62
2023-04-16T10:15:37.056Z,50.31
2023-04-16T10:16:41.165Z,49.74
2023-04-16T10:17:43.812Z,48.81
2023-04-16T10:18:46.904Z,48.85
2023-04-16T10:19:49.091Z,49.06
2023-04-16T10:20:51.866Z,49.38
2023-04-16T10:21:55.646Z,49.84
2023-04-16T10:22:57.814Z,49.17
2023-04-16T10:24:00.603Z,49.17
2023-04-16T10:25:03.362Z,49.18
2023-04-16T10:26:05.911Z,47.27
2023-04-16T10:27:07.997Z,46.99
2023-04-16T10:28:10.394Z,46.77
2023-04-16T10:29:13.453Z,46.07
2023-04-16T10:30:15.912Z,46.34
2023-04-16T10:31:18.105Z,45.73
2023-04-16T10:32:21.891Z,45.39
2023-04-16T10:33:27.601Z,45.86
2023-04-16T10:34:31.356Z,46.53
2023-04-16T10:35:33.416Z,46.10
2023-04-16T10:36:38.568Z,44.42
2023-04-16T10:37:41.180Z,44.55
2023-04-16T10:38:52.742Z,44.99
2023-04-16T10:39:54.864Z,43.97
2023-04-16T10:41:01.091Z,43.46
2023-04-16T10:42:11.869Z,42.79
2023-04-16T10:43:18.231Z,43.38
2023-04-16T10:44:20.379Z,44.16
2023-04-16T10:45:31.024Z,44.42
2023-04-16T10:46:34.710Z,43.97
2023-04-16T10:47:40.350Z,43.37
2023-04-16T10:48:49.671Z,41.68
2023-04-16T10:49:52.656Z,40.23
2023-04-16T10:50:58.123Z,39.94
2023-04-16T10:52:03.710Z,39.02
2023-04-16T10:53:23.972Z,39.27
2023-04-16T10:54:30.353Z,41.00
2023-04-16T10:55:33.935Z,39.75
2023-04-16T10:56:36.882Z,39.78
2023-04-16T10:57:38.995Z,39.13
2023-04-16T10:58:41.808Z,39.50
2023-04-16T10:59:44.450Z,39.30
2023-04-16T11:00:50.515Z,39.17
2023-04-16T11:01:55.078Z,38.67
2023-04-16T11:02:57.508Z,38.43
2023-04-16T11:04:02.166Z,38.96
2023-04-16T11:05:05.238Z,39.82
2023-04-16T11:06:17.962Z,40.07
2023-04-16T11:07:32.164Z,38.89
2023-04-16T11:08:38.829Z,37.14
2023-04-16T11:09:47.560Z,37.35
2023-04-16T11:10:49.726Z,36.99
2023-04-16T11:11:52.008Z,35.99
2023-04-16T11:12:55.106Z,33.78
2023-04-16T11:13:57.271Z,33.97
2023-04-16T11:15:05.085Z,34.90
2023-04-16T11:16:07.442Z,34.40
2023-04-16T11:17:10.300Z,33.69
2023-04-16T11:18:12.496Z,34.74
2023-04-16T11:19:17.739Z,35.90
2023-04-16T11:20:21.755Z,36.30
2023-04-16T11:21:24.398Z,36.90
2023-04-16T11:22:27.145Z,37.98
2023-04-16T11:23:29.265Z,38.46
2023-04-16T11:24:34.634Z,40.04
2023-04-16T11:25:36.952Z,38.69
2023-04-16T11:26:39.090Z,38.07
2023-04-16T11:27:41.285Z,37.06
2023-04-16T11:28:43.398Z,37.02
2023-04-16T11:29:47.432Z,35.92
2023-04-16T11:30:49.820Z,37.39
2023-04-16T11:31:53.069Z,38.26
2023-04-16T11:32:55.379Z,37.30
2023-04-16T11:33:57.857Z,36.75
2023-04-16T11:35:03.864Z,36.62
2023-04-16T11:36:06.230Z,35.80
2023-04-16T11:37:08.411Z,35.59
2023-04-16T11:38:10.533Z,36.64
2023-04-16T11:39:12.902Z,35.96
2023-04-16T11:40:15.509Z,35.71
2023-04-16T11:41:21.855Z,35.83
2023-04-16T11:42:24.125Z,35.97
2023-04-16T11:43:26.778Z,35.90
2023-04-16T11:44:29.752Z,35.47
2023-04-16T11:45:31.876Z,35.46
2023-04-16T11:46:40.715Z,35.48
2023-04-16T11:47:47.766Z,36.06
2023-04-16T11:48:51.931Z,36.61
2023-04-16T11:49:54.034Z,35.36
2023-04-16T11:50:59.357Z,35.05
2023-04-16T11:52:01.496Z,34.93
2023-04-16T11:53:04.871Z,37.17
2023-04-16T11:54:10.333Z,36.32
2023-04-16T11:55:14.175Z,36.19
2023-04-16T11:56:25.300Z,36.31
2023-04-16T11:57:29.225Z,35.17
2023-04-16T11:58:31.326Z,35.19
2023-04-16T11:59:34.330Z,35.37
2023-04-16T12:00:36.439Z,35.14
2023-04-16T12:01:40.459Z,33.83
2023-04-16T12:02:43.915Z,34.61
2023-04-16T12:03:49.720Z,34.64
2023-04-16T12:04:52.234Z,35.39
2023-04-16T12:05:54.389Z,35.68
2023-04-16T12:07:06.907Z,35.87
2023-04-16T12:08:10.679Z,36.56
2023-04-16T12:09:26.184Z,37.18
2023-04-16T12:10:29.141Z,35.80
2023-04-16T12:11:43.704Z,36.29
2023-04-16T12:12:46.144Z,36.33
2023-04-16T12:14:12.032Z,36.41
2023-04-16T12:15:14.177Z,36.07
2023-04-16T12:16:19.512Z,36.46
2023-04-16T12:17:21.660Z,36.68
2023-04-16T12:18:26.863Z,36.83
2023-04-16T12:19:29.188Z,36.38
2023-04-16T12:20:39.371Z,36.97
2023-04-16T12:21:48.801Z,36.28
2023-04-16T12:22:52.772Z,36.91
2023-04-16T12:23:54.987Z,36.38
2023-04-16T12:25:04.432Z,36.46
2023-04-16T12:26:12.419Z,37.12
2023-04-16T12:27:16.309Z,37.66
2023-04-16T12:28:30.037Z,38.94
2023-04-16T12:29:32.267Z,38.75
2023-04-16T12:30:34.606Z,38.32
2023-04-16T12:31:38.194Z,37.47
2023-04-16T12:32:41.742Z,37.52
2023-04-16T12:33:43.949Z,39.27
2023-04-16T12:34:52.361Z,38.92
2023-04-16T12:35:54.926Z,39.85
2023-04-16T12:37:09.532Z,38.97
2023-04-16T12:38:12.057Z,38.89
2023-04-16T12:39:15.475Z,38.98
2023-04-16T12:40:17.561Z,38.90
2023-04-16T12:41:19.709Z,39.02
2023-04-16T12:42:22.062Z,39.47
2023-04-16T12:43:24.447Z,39.73
2023-04-16T12:44:27.914Z,38.19
2023-04-16T12:45:30.429Z,38.48
2023-04-16T12:46:32.609Z,38.31
2023-04-16T12:47:34.842Z,37.79
2023-04-16T12:48:38.059Z,38.19
2023-04-16T12:49:40.350Z,39.06
2023-04-16T12:50:44.399Z,39.72
2023-04-16T12:51:46.901Z,38.64
2023-04-16T12:52:49.214Z,38.50
2023-04-16T12:53:51.327Z,38.98
2023-04-16T12:54:53.612Z,40.03
2023-04-16T12:55:55.901Z,38.94
2023-04-16T12:56:58.006Z,39.53
2023-04-16T12:58:00.149Z,37.75
2023-04-16T12:59:02.709Z,37.10
2023-04-16T13:00:06.676Z,36.74
2023-04-16T13:01:08.896Z,36.73
2023-04-16T13:02:11.220Z,36.99
2023-04-16T13:03:13.825Z,36.50
2023-04-16T13:04:18.072Z,35.09
2023-04-16T13:05:20.792Z,35.03
2023-04-16T13:06:23.047Z,34.79
2023-04-16T13:07:27.024Z,34.06
2023-04-16T13:08:29.418Z,33.29
2023-04-16T13:09:31.514Z,32.45
2023-04-16T13:10:33.649Z,32.66
2023-04-16T13:11:36.080Z,32.36
2023-04-16T13:12:38.240Z,32.21
2023-04-16T13:13:40.468Z,32.67
2023-04-16T13:14:44.659Z,31.78
2023-04-16T13:15:47.330Z,33.75
2023-04-16T13:16:49.632Z,32.68
2023-04-16T13:17:51.851Z,33.34
2023-04-16T13:18:54.055Z,32.55
2023-04-16T13:19:56.267Z,31.85
2023-04-16T13:20:58.764Z,31.36
2023-04-16T13:22:00.970Z,32.29
2023-04-16T13:23:05.041Z,32.50
2023-04-16T13:24:07.298Z,32.80
2023-04-16T13:25:10.116Z,33.25
2023-04-16T13:26:14.830Z,33.59
2023-04-16T13:27:17.420Z,34.98
2023-04-16T13:28:20.051Z,34.68
2023-04-16T13:29:22.853Z,34.72
2023-04-16T13:30:25.823Z,34.89
2023-04-16T13:31:28.492Z,34.85
2023-04-16T13:32:30.792Z,35.42
2023-04-16T13:33:33.079Z,34.77